Time;durP1;ratioP1;P1;durP2;ratioP2;P2;SDS_P1;SDS_P2;PMS_P1;PMS_P2;Temp;Humidity;BMP_temperature;BMP_pressure;BME280_temperature;BME280_humidity;BME280_pressure;Samples;Min_cycle;Max_cycle;Signal;HPM_P1;HPM_P2
2022/04/26 03:38:07;;;;;;;7.97;3.40;;;9.50;99.90;;;;;;5035025;28;20232;-90
2022/04/26 03:40:39;;;;;;;11.53;4.00;;;9.50;99.90;;;;;;5027594;28;20232;-91
2022/04/26 03:43:13;;;;;;;5.67;2.97;;;9.50;99.90;;;;;;5028178;28;20213;-91
2022/04/26 03:48:23;;;;;;;5.80;3.50;;;9.50;99.90;;;;;;5111125;23;20240;-90
2022/04/26 03:50:56;;;;;;;6.50;3.67;;;9.50;99.90;;;;;;5054727;28;20224;-90
2022/04/26 03:53:35;;;;;;;9.83;4.03;;;9.40;99.90;;;;;;5055037;28;20300;-90
2022/04/26 03:56:11;;;;;;;7.03;3.50;;;9.40;99.90;;;;;;5054018;28;20279;-91
2022/04/26 03:58:43;;;;;;;6.57;3.57;;;9.40;99.90;;;;;;5050382;28;20203;-90
2022/04/26 04:01:15;;;;;;;6.83;3.50;;;9.40;99.90;;;;;;5050436;28;20259;-90
2022/04/26 04:06:48;;;;;;;6.30;3.53;;;9.40;99.90;;;;;;5055889;28;20205;-91
2022/04/26 04:09:24;;;;;;;7.57;3.67;;;9.40;99.90;;;;;;5052922;28;20208;-91
2022/04/26 04:11:57;;;;;;;7.47;3.53;;;9.40;99.90;;;;;;5052514;28;20216;-91
2022/04/26 04:17:18;;;;;;;6.33;3.43;;;9.10;99.90;;;;;;5860809;23;20264;-92
2022/04/26 04:19:52;;;;;;;5.97;3.40;;;9.00;99.90;;;;;;5048588;28;20247;-89
2022/04/26 04:22:24;;;;;;;5.40;2.93;;;9.00;99.90;;;;;;5043079;28;20649;-90
2022/04/26 04:24:57;;;;;;;6.17;3.73;;;8.90;99.90;;;;;;5058789;28;20239;-90
2022/04/26 04:27:30;;;;;;;4.87;3.30;;;9.00;99.90;;;;;;5058814;28;20220;-91
2022/04/26 04:30:02;;;;;;;4.63;3.63;;;8.90;99.90;;;;;;5058018;28;20212;-89
2022/04/26 04:32:33;;;;;;;9.40;3.80;;;8.90;99.90;;;;;;5047054;28;20239;-89
2022/04/26 04:35:05;;;;;;;6.93;3.70;;;8.80;99.90;;;;;;5046257;28;20262;-90
2022/04/26 04:37:36;;;;;;;8.00;3.63;;;8.80;99.90;;;;;;5043145;28;20275;-89
2022/04/26 04:40:12;;;;;;;7.23;3.47;;;8.80;99.90;;;;;;5040755;28;20778;-90
2022/04/26 04:42:43;;;;;;;8.67;3.67;;;8.70;99.90;;;;;;5040442;28;20548;-90
2022/04/26 04:45:15;;;;;;;6.27;3.33;;;8.70;99.90;;;;;;5040481;28;20215;-90
2022/04/26 04:47:47;;;;;;;6.90;3.57;;;8.70;99.90;;;;;;5047783;28;20196;-91
2022/04/26 04:50:19;;;;;;;7.30;3.47;;;8.70;99.90;;;;;;5178532;23;20336;-90
2022/04/26 04:52:50;;;;;;;6.43;3.30;;;8.70;99.90;;;;;;5019992;28;20221;-89
2022/04/26 04:55:24;;;;;;;7.97;3.40;;;8.60;99.90;;;;;;5020124;28;20205;-89
2022/04/26 04:57:56;;;;;;;5.33;3.40;;;8.60;99.90;;;;;;5023510;28;20213;-90
2022/04/26 05:00:28;;;;;;;10.53;3.70;;;8.60;99.90;;;;;;5019994;28;20239;-90
2022/04/26 05:03:00;;;;;;;9.20;3.43;;;8.50;99.90;;;;;;5020575;28;20212;-90
2022/04/26 05:05:31;;;;;;;8.13;3.60;;;8.50;99.90;;;;;;5019981;28;20213;-90
2022/04/26 05:08:03;;;;;;;6.53;3.40;;;8.50;99.90;;;;;;5018878;28;20296;-89
2022/04/26 05:10:36;;;;;;;5.63;3.70;;;8.40;99.90;;;;;;5024365;28;20246;-90
2022/04/26 05:13:08;;;;;;;8.10;3.80;;;8.50;99.90;;;;;;5021405;28;20283;-90
2022/04/26 05:15:42;;;;;;;9.80;3.63;;;8.40;99.90;;;;;;5030806;28;20213;-90
2022/04/26 05:18:14;;;;;;;4.90;3.20;;;8.40;99.90;;;;;;5022786;28;20265;-90
2022/04/26 05:20:46;;;;;;;6.60;3.83;;;8.40;99.90;;;;;;5020813;28;20315;-90
2022/04/26 05:26:09;;;;;;;7.73;3.33;;;8.30;99.90;;;;;;5019020;28;20205;-90
2022/04/26 05:28:40;;;;;;;7.73;3.70;;;8.30;99.90;;;;;;5018777;28;20581;-90
2022/04/26 05:31:11;;;;;;;5.77;3.40;;;8.40;99.90;;;;;;5019381;28;20213;-91
2022/04/26 05:33:51;;;;;;;8.23;3.30;;;8.30;99.90;;;;;;5025304;28;20235;-90
2022/04/26 05:47:02;;;;;;;8.47;3.23;;;8.40;99.90;;;;;;5136179;27;1237137;-90
2022/04/26 05:49:33;;;;;;;6.13;3.17;;;8.30;99.90;;;;;;5155651;27;20969;-90
2022/04/26 05:52:06;;;;;;;7.20;3.73;;;8.30;99.90;;;;;;5157407;27;20205;-90
2022/04/26 05:54:38;;;;;;;6.27;3.13;;;8.30;99.90;;;;;;5156112;27;20276;-91
2022/04/26 05:57:12;;;;;;;9.93;3.53;;;8.30;99.90;;;;;;5139510;27;20201;-91
2022/04/26 05:59:43;;;;;;;7.77;3.20;;;8.30;99.90;;;;;;5162894;27;20193;-91
2022/04/26 06:02:17;;;;;;;7.60;2.80;;;8.30;99.90;;;;;;5163300;27;20205;-90
2022/04/26 06:04:48;;;;;;;5.43;2.57;;;8.30;99.90;;;;;;5177654;27;20208;-90
2022/04/26 06:07:20;;;;;;;5.40;2.50;;;8.30;99.90;;;;;;5178004;27;20207;-92
2022/04/26 06:09:53;;;;;;;7.17;2.57;;;8.20;99.90;;;;;;5160120;27;20257;-91
2022/04/26 06:12:26;;;;;;;6.03;2.50;;;8.20;99.90;;;;;;5177762;27;20196;-91
2022/04/26 06:14:58;;;;;;;5.57;2.33;;;8.20;99.90;;;;;;5160084;27;20280;-90
2022/04/26 06:17:32;;;;;;;7.93;2.67;;;8.20;99.90;;;;;;5173628;27;20268;-91
2022/04/26 06:20:03;;;;;;;4.27;2.20;;;8.20;99.90;;;;;;5139073;27;20224;-90
2022/04/26 06:22:35;;;;;;;7.90;2.17;;;8.10;99.90;;;;;;5140049;27;20225;-91
2022/04/26 06:25:08;;;;;;;7.70;2.10;;;8.20;99.90;;;;;;5158270;27;20228;-90
2022/04/26 06:27:40;;;;;;;6.33;2.70;;;8.20;99.90;;;;;;5156998;27;20224;-90
2022/04/26 06:30:12;;;;;;;6.97;2.07;;;8.20;99.90;;;;;;5157469;27;20224;-90
2022/04/26 06:32:45;;;;;;;5.67;1.97;;;8.20;99.90;;;;;;5156005;27;20216;-90
2022/04/26 06:35:16;;;;;;;7.83;2.00;;;8.20;99.90;;;;;;5155742;27;20346;-91
2022/04/26 06:37:47;;;;;;;7.83;2.27;;;8.20;99.90;;;;;;5153983;27;20287;-90
2022/04/26 06:40:21;;;;;;;3.90;1.77;;;8.10;99.90;;;;;;5155266;27;20258;-89
2022/04/26 06:42:52;;;;;;;4.33;1.40;;;8.10;99.90;;;;;;5155606;27;20567;-90
2022/04/26 06:45:24;;;;;;;6.33;2.03;;;8.10;99.90;;;;;;5151101;27;20219;-90
2022/04/26 06:48:23;;;;;;;6.63;1.60;;;8.00;99.90;;;;;;5161574;27;20210;-90
2022/04/26 06:50:57;;;;;;;3.47;1.80;;;8.00;99.90;;;;;;5162696;27;20209;-90
2022/04/26 06:53:28;;;;;;;10.13;2.07;;;7.90;99.90;;;;;;5162806;27;20985;-91
2022/04/26 06:55:59;;;;;;;8.10;1.90;;;7.90;99.90;;;;;;5162430;27;20267;-91
2022/04/26 06:58:30;;;;;;;4.10;1.50;;;7.80;99.90;;;;;;5161072;27;20238;-90
2022/04/26 07:01:02;;;;;;;4.67;2.03;;;7.80;99.90;;;;;;5161517;27;20228;-91
2022/04/26 07:03:57;;;;;;;4.33;1.87;;;7.90;99.90;;;;;;5161609;27;20201;-89
2022/04/26 07:06:30;;;;;;;3.83;1.60;;;7.80;99.90;;;;;;5174905;27;20206;-90
2022/04/26 07:09:03;;;;;;;10.57;1.83;;;7.80;99.90;;;;;;5173281;27;20245;-91
2022/04/26 07:14:04;;;;;;;5.73;1.53;;;7.70;99.90;;;;;;5083336;28;20219;-91
2022/04/26 07:16:35;;;;;;;8.73;1.93;;;7.70;99.90;;;;;;5085805;28;20272;-91
2022/04/26 07:19:13;;;;;;;8.00;1.87;;;7.70;99.90;;;;;;5068174;28;20201;-91
2022/04/26 07:21:46;;;;;;;8.77;1.60;;;7.70;99.90;;;;;;5080038;28;20575;-92
2022/04/26 07:24:33;;;;;;;3.87;1.40;;;7.70;99.90;;;;;;5068306;28;20275;-90
2022/04/26 07:27:07;;;;;;;6.87;1.77;;;7.70;99.90;;;;;;5097448;28;20226;-91
2022/04/26 07:29:41;;;;;;;7.63;2.03;;;7.70;99.90;;;;;;5092811;28;20577;-89
2022/04/26 07:32:12;;;;;;;4.63;1.37;;;7.70;99.90;;;;;;5089471;28;20655;-91
2022/04/26 07:34:45;;;;;;;9.70;1.70;;;7.60;99.90;;;;;;5081945;28;20651;-89
2022/04/26 07:37:19;;;;;;;8.10;1.67;;;7.60;99.90;;;;;;5079953;28;20235;-91
2022/04/26 07:39:50;;;;;;;5.87;1.53;;;7.60;99.90;;;;;;5079197;28;20234;-91
2022/04/26 07:42:23;;;;;;;8.30;1.90;;;7.60;99.90;;;;;;5078756;28;20231;-91
2022/04/26 07:44:54;;;;;;;8.17;1.73;;;7.60;99.90;;;;;;5061528;28;20260;-91
2022/04/26 07:47:26;;;;;;;7.23;2.00;;;7.50;99.90;;;;;;5077693;28;20634;-91
2022/04/26 07:50:03;;;;;;;6.93;1.97;;;7.50;99.90;;;;;;5080064;28;20317;-90
2022/04/26 07:52:37;;;;;;;6.27;1.93;;;7.50;99.90;;;;;;5081212;28;20282;-91
2022/04/26 07:55:11;;;;;;;6.97;2.03;;;7.40;99.90;;;;;;5096948;28;20249;-90
2022/04/26 07:57:45;;;;;;;7.60;2.20;;;7.40;99.90;;;;;;5095867;28;20214;-91
2022/04/26 08:00:17;;;;;;;5.57;1.53;;;7.40;99.90;;;;;;5051344;28;20208;-92
2022/04/26 08:02:49;;;;;;;8.10;1.90;;;7.40;99.90;;;;;;5073170;28;20246;-91
2022/04/26 08:05:23;;;;;;;5.80;1.73;;;7.40;99.90;;;;;;5106509;28;20298;-91
2022/04/26 08:07:53;;;;;;;8.10;1.80;;;7.30;99.90;;;;;;5104182;28;20237;-90
2022/04/26 08:10:25;;;;;;;5.90;1.93;;;7.30;99.90;;;;;;5110452;28;20223;-89
2022/04/26 08:12:56;;;;;;;6.37;1.90;;;7.30;99.90;;;;;;5113001;28;20268;-90
2022/04/26 08:15:28;;;;;;;8.40;1.77;;;7.30;99.90;;;;;;5096089;28;20211;-90
2022/04/26 08:18:00;;;;;;;5.20;1.60;;;7.30;99.90;;;;;;5084275;28;20208;-91
2022/04/26 08:20:33;;;;;;;8.73;2.00;;;7.20;99.90;;;;;;5082092;28;20284;-90
2022/04/26 08:23:10;;;;;;;7.83;1.60;;;7.20;99.90;;;;;;5079914;28;20262;-90
2022/04/26 08:28:30;;;;;;;9.40;2.40;;;7.10;99.90;;;;;;5058050;28;20243;-90
2022/04/26 08:31:04;;;;;;;5.37;2.13;;;7.10;99.90;;;;;;5058639;28;20330;-90
2022/04/26 08:33:36;;;;;;;6.77;1.53;;;7.10;99.90;;;;;;5058551;28;20282;-90
2022/04/26 08:36:12;;;;;;;7.40;2.30;;;7.00;99.90;;;;;;5058304;28;20720;-90
2022/04/26 08:38:44;;;;;;;6.93;1.93;;;7.00;99.90;;;;;;5065070;28;20203;-90
2022/04/26 08:41:16;;;;;;;7.50;2.10;;;7.00;99.90;;;;;;5060317;28;20196;-89
2022/04/26 08:43:47;;;;;;;12.80;1.90;;;7.00;99.90;;;;;;5064908;28;20212;-90
2022/04/26 08:46:18;;;;;;;8.03;2.30;;;6.90;99.90;;;;;;5060367;28;20239;-90
2022/04/26 08:52:02;;;;;;;6.47;1.67;;;7.00;99.90;;;;;;4992758;28;20278;-90
2022/04/26 08:54:34;;;;;;;8.47;2.30;;;7.00;99.90;;;;;;4988713;28;20267;-90
2022/04/26 08:57:13;;;;;;;6.50;1.50;;;7.00;99.90;;;;;;5040587;28;20573;-90
2022/04/26 08:59:48;;;;;;;7.87;1.80;;;6.90;99.90;;;;;;5068238;28;20208;-90
2022/04/26 09:02:22;;;;;;;11.13;2.23;;;6.90;99.90;;;;;;5050941;28;20607;-90
2022/04/26 09:04:54;;;;;;;10.23;2.30;;;6.90;99.90;;;;;;5071925;28;20188;-90
2022/04/26 09:07:36;;;;;;;7.43;2.37;;;6.90;99.90;;;;;;5067948;28;20212;-90
2022/04/26 09:10:13;;;;;;;7.63;2.13;;;6.90;99.90;;;;;;5075193;28;20195;-91
2022/04/26 09:13:01;;;;;;;5.00;2.00;;;6.90;99.90;;;;;;5084499;28;20290;-91
2022/04/26 09:15:41;;;;;;;6.50;2.17;;;7.00;99.90;;;;;;5078943;28;20208;-91
2022/04/26 09:18:26;;;;;;;7.83;1.90;;;7.00;99.90;;;;;;5060836;28;20238;-91
2022/04/26 09:20:59;;;;;;;8.53;2.20;;;7.00;99.90;;;;;;5079070;28;20210;-91
2022/04/26 09:23:32;;;;;;;6.10;2.10;;;7.10;99.90;;;;;;5079733;28;20223;-90
2022/04/26 09:26:09;;;;;;;6.50;1.90;;;7.00;99.90;;;;;;5061618;28;20207;-90
2022/04/26 09:28:44;;;;;;;12.07;2.23;;;7.10;99.90;;;;;;5078136;28;20217;-91
2022/04/26 09:31:27;;;;;;;9.03;2.30;;;7.10;99.90;;;;;;5078534;28;20204;-91
2022/04/26 09:34:04;;;;;;;6.63;2.13;;;7.10;99.90;;;;;;5090892;28;20237;-88
2022/04/26 09:36:44;;;;;;;7.60;2.63;;;7.10;99.90;;;;;;5098682;28;20226;-90
2022/04/26 09:39:25;;;;;;;8.37;2.47;;;7.10;99.90;;;;;;5099585;28;20237;-90
2022/04/26 09:42:32;;;;;;;11.27;2.70;;;7.00;99.90;;;;;;5098476;28;20297;-91
2022/04/26 09:45:09;;;;;;;8.17;2.07;;;7.00;99.90;;;;;;5098270;28;20597;-90
2022/04/26 09:47:42;;;;;;;8.70;2.50;;;7.00;99.90;;;;;;5099739;28;20203;-90
2022/04/26 09:50:15;;;;;;;9.80;2.57;;;7.00;99.90;;;;;;5102928;28;20241;-90
2022/04/26 09:52:47;;;;;;;7.83;2.60;;;7.00;99.90;;;;;;5116402;28;20249;-90
2022/04/26 09:55:20;;;;;;;11.13;2.67;;;6.90;99.90;;;;;;5114658;28;20214;-90
2022/04/26 09:57:53;;;;;;;5.37;2.43;;;6.90;99.90;;;;;;5104516;28;20234;-90
2022/04/26 10:00:27;;;;;;;10.63;2.67;;;6.90;99.90;;;;;;5102392;28;20207;-90
2022/04/26 10:03:06;;;;;;;11.27;2.70;;;6.90;99.90;;;;;;5079764;28;20210;-91
2022/04/26 10:05:41;;;;;;;7.77;2.50;;;6.90;99.90;;;;;;5084381;28;20191;-91
2022/04/26 10:08:16;;;;;;;7.80;2.20;;;7.00;99.90;;;;;;5095901;28;20345;-91
2022/04/26 10:10:50;;;;;;;13.23;2.80;;;7.00;99.90;;;;;;5093396;28;20260;-90
2022/04/26 10:13:35;;;;;;;9.57;2.70;;;7.00;99.90;;;;;;5061622;28;20279;-89
2022/04/26 10:16:08;;;;;;;8.73;2.70;;;7.00;99.90;;;;;;5041353;28;20301;-90
2022/04/26 10:18:45;;;;;;;12.30;2.97;;;7.00;99.90;;;;;;5039792;28;20256;-90
2022/04/26 10:21:49;;;;;;;6.83;2.63;;;7.00;99.90;;;;;;5058573;28;20216;-91
2022/04/26 10:24:23;;;;;;;10.60;2.60;;;7.00;99.90;;;;;;5061036;28;20679;-91
2022/04/26 10:27:20;;;;;;;9.30;2.10;;;6.90;99.90;;;;;;5072463;28;20219;-90
2022/04/26 10:29:52;;;;;;;9.37;3.10;;;6.80;99.90;;;;;;5078235;28;20215;-91
2022/04/26 10:32:34;;;;;;;7.23;2.17;;;6.80;99.90;;;;;;5076298;28;20219;-91
2022/04/26 10:35:33;;;;;;;8.17;2.53;;;6.70;99.90;;;;;;5078843;28;20214;-90
2022/04/26 10:38:16;;;;;;;10.40;2.80;;;6.70;99.90;;;;;;5077514;28;20228;-90
2022/04/26 10:41:11;;;;;;;11.00;3.23;;;6.60;99.90;;;;;;5079160;28;20192;-91
2022/04/26 10:44:22;;;;;;;7.03;2.13;;;6.60;99.90;;;;;;5074138;28;20238;-91
2022/04/26 10:47:35;;;;;;;10.17;2.37;;;6.50;99.90;;;;;;5078669;28;20196;-91
2022/04/26 10:50:09;;;;;;;11.90;2.73;;;6.40;99.90;;;;;;5077873;28;20264;-89
2022/04/26 10:52:45;;;;;;;15.60;2.60;;;6.40;99.90;;;;;;5068601;28;20242;-91
2022/04/26 10:55:18;;;;;;;10.93;2.63;;;6.40;99.90;;;;;;5062704;28;20238;-89
2022/04/26 10:57:52;;;;;;;10.27;3.67;;;6.30;99.90;;;;;;5062407;28;20270;-89
2022/04/26 11:00:45;;;;;;;8.43;2.77;;;6.30;99.90;;;;;;5062359;28;20287;-90
2022/04/26 11:03:19;;;;;;;9.07;2.43;;;6.20;99.90;;;;;;5095333;22;20243;-92
2022/04/26 11:05:50;;;;;;;9.20;2.60;;;6.20;99.90;;;;;;5062586;28;20643;-90
2022/04/26 11:08:21;;;;;;;10.87;2.77;;;6.20;99.90;;;;;;5061501;28;20634;-90
2022/04/26 11:11:09;;;;;;;9.13;2.60;;;6.10;99.90;;;;;;5065192;28;20208;-90
2022/04/26 11:13:41;;;;;;;11.97;2.60;;;6.20;99.90;;;;;;5066227;28;20268;-90
2022/04/26 11:16:16;;;;;;;9.63;2.17;;;6.20;99.90;;;;;;5069742;28;20256;-90
2022/04/26 11:18:47;;;;;;;8.37;2.37;;;6.10;99.90;;;;;;5063737;28;20305;-91
2022/04/26 11:21:20;;;;;;;9.07;2.40;;;6.10;99.90;;;;;;5062036;28;20740;-92
2022/04/26 11:29:51;;;;;;;9.37;3.87;;;6.10;99.90;;;;;;4987827;28;20242;-92
2022/04/26 11:32:34;;;;;;;11.73;2.70;;;6.10;99.90;;;;;;5060667;28;20204;-92
2022/04/26 11:35:06;;;;;;;11.97;2.90;;;6.10;99.90;;;;;;5041179;28;20212;-92
2022/04/26 11:37:45;;;;;;;8.50;2.97;;;6.10;99.90;;;;;;5041119;28;20249;-90
2022/04/26 11:40:28;;;;;;;9.63;3.00;;;6.10;99.90;;;;;;5024002;28;20296;-93
2022/04/26 11:43:07;;;;;;;12.60;3.20;;;6.10;99.90;;;;;;5042186;28;20251;-91
2022/04/26 11:45:39;;;;;;;11.27;2.70;;;6.00;99.90;;;;;;5040185;28;20288;-91
2022/04/26 11:48:16;;;;;;;11.13;2.40;;;6.00;99.90;;;;;;5038590;28;20252;-91
2022/04/26 11:50:49;;;;;;;7.83;2.40;;;6.00;99.90;;;;;;5040888;28;20292;-91
2022/04/26 11:53:22;;;;;;;11.03;2.40;;;6.00;99.90;;;;;;5040212;28;20220;-91
2022/04/26 11:55:56;;;;;;;9.20;3.13;;;6.00;99.90;;;;;;5040573;28;20209;-92
2022/04/26 11:58:35;;;;;;;9.73;2.77;;;6.00;99.90;;;;;;5039971;28;20196;-92
2022/04/26 12:01:11;;;;;;;11.07;2.80;;;6.00;99.90;;;;;;5040526;28;20558;-92
2022/04/26 12:03:48;;;;;;;9.00;2.90;;;6.00;99.90;;;;;;5054711;28;20227;-92
2022/04/26 12:06:21;;;;;;;7.70;2.53;;;5.90;99.90;;;;;;5059180;28;20207;-90
2022/04/26 12:08:57;;;;;;;7.70;3.20;;;5.90;99.90;;;;;;5059578;28;20289;-90
2022/04/26 12:11:30;;;;;;;10.23;3.30;;;5.90;99.90;;;;;;5060638;28;20203;-90
2022/04/26 12:14:02;;;;;;;11.70;3.03;;;5.90;99.90;;;;;;5061338;28;20196;-91
2022/04/26 12:16:37;;;;;;;9.20;2.83;;;5.90;99.90;;;;;;5071644;28;20201;-92
2022/04/26 12:19:11;;;;;;;10.30;3.07;;;5.90;99.90;;;;;;5093095;28;20184;-92
2022/04/26 12:21:52;;;;;;;10.60;2.83;;;5.80;99.90;;;;;;5097854;28;20222;-93
2022/04/26 12:24:26;;;;;;;7.07;2.93;;;5.80;99.90;;;;;;5096441;28;20200;-91
2022/04/26 12:26:59;;;;;;;8.23;2.57;;;5.80;99.90;;;;;;5084815;28;20246;-92
2022/04/26 12:29:32;;;;;;;12.30;3.10;;;5.80;99.90;;;;;;5060565;28;20693;-91
2022/04/26 12:32:08;;;;;;;5.00;2.30;;;5.80;99.90;;;;;;5059778;28;20209;-90
2022/04/26 12:34:50;;;;;;;12.20;3.00;;;5.70;99.90;;;;;;5059124;28;20234;-89
2022/04/26 12:37:22;;;;;;;6.13;2.50;;;5.70;99.90;;;;;;5058025;28;20570;-90
2022/04/26 12:39:58;;;;;;;12.37;3.10;;;5.70;99.90;;;;;;5058671;28;20295;-91
2022/04/26 12:42:35;;;;;;;11.80;3.27;;;5.70;99.90;;;;;;5058142;28;20204;-91
2022/04/26 12:45:07;;;;;;;9.67;3.40;;;5.70;99.90;;;;;;5038386;28;20324;-91
2022/04/26 12:50:32;;;;;;;11.27;3.37;;;5.70;99.90;;;;;;5037516;28;20237;-91
2022/04/26 12:53:05;;;;;;;9.47;2.90;;;5.70;99.90;;;;;;5038656;28;20617;-92
2022/04/26 12:55:37;;;;;;;12.50;2.87;;;5.70;99.90;;;;;;5037957;28;20209;-89
2022/04/26 12:58:09;;;;;;;11.97;2.90;;;5.60;99.90;;;;;;5037890;28;20292;-91
2022/04/26 13:00:43;;;;;;;7.87;2.53;;;5.60;99.90;;;;;;5038540;28;20258;-91
2022/04/26 13:03:17;;;;;;;9.77;3.00;;;5.60;99.90;;;;;;5038112;28;20235;-90
2022/04/26 13:05:54;;;;;;;9.73;2.63;;;5.60;99.90;;;;;;5039935;28;20212;-90
2022/04/26 13:08:46;;;;;;;12.87;3.47;;;5.60;99.90;;;;;;5037517;28;20235;-90
2022/04/26 13:11:18;;;;;;;16.77;3.40;;;5.60;99.90;;;;;;5040167;28;20216;-90
2022/04/26 13:13:51;;;;;;;16.60;2.67;;;5.60;99.90;;;;;;5037733;28;20667;-91
2022/04/26 13:16:22;;;;;;;12.80;2.97;;;5.60;99.90;;;;;;5077383;28;20199;-90
2022/04/26 13:18:54;;;;;;;15.87;3.37;;;5.60;99.90;;;;;;5084638;28;20207;-90
2022/04/26 13:21:29;;;;;;;9.90;2.93;;;5.60;99.90;;;;;;5077813;28;20281;-90
2022/04/26 13:24:02;;;;;;;15.87;3.50;;;5.60;99.90;;;;;;5077358;28;20642;-88
2022/04/26 13:26:35;;;;;;;30.67;3.53;;;5.60;99.90;;;;;;5077786;28;20310;-90
2022/04/26 13:29:06;;;;;;;10.77;2.80;;;5.70;99.90;;;;;;5082927;28;20215;-91
2022/04/26 13:31:38;;;;;;;11.50;3.10;;;5.70;99.90;;;;;;5081458;28;20333;-90
2022/04/26 13:34:12;;;;;;;11.80;3.20;;;5.70;99.90;;;;;;5082184;28;20210;-90
2022/04/26 13:37:07;;;;;;;9.33;3.40;;;5.70;99.90;;;;;;5078027;28;20306;-91
2022/04/26 13:39:39;;;;;;;10.30;3.17;;;5.70;99.90;;;;;;5077481;28;20233;-90
2022/04/26 13:42:11;;;;;;;12.00;3.20;;;5.80;99.90;;;;;;5077045;28;20288;-92
2022/04/26 13:44:43;;;;;;;9.47;3.03;;;5.80;99.90;;;;;;5081495;28;20235;-89
2022/04/26 13:47:14;;;;;;;8.80;2.90;;;5.90;99.90;;;;;;5326901;22;20346;-96
2022/04/26 13:49:45;;;;;;;10.70;2.90;;;6.00;99.90;;;;;;5057754;28;20239;-90
2022/04/26 13:52:20;;;;;;;10.70;2.97;;;6.00;99.90;;;;;;5058450;28;20234;-92
2022/04/26 13:54:52;;;;;;;12.23;3.57;;;6.10;99.90;;;;;;5058234;28;20227;-89
2022/04/26 13:57:24;;;;;;;6.87;2.90;;;6.20;99.90;;;;;;5058762;28;20287;-89
2022/04/26 13:59:55;;;;;;;7.50;3.20;;;6.20;99.90;;;;;;5061574;28;20606;-90
2022/04/26 14:02:26;;;;;;;9.27;3.17;;;6.30;99.90;;;;;;5062115;28;20211;-90
2022/04/26 14:04:57;;;;;;;7.13;2.70;;;6.30;99.90;;;;;;5081035;28;20686;-90
2022/04/26 14:07:32;;;;;;;11.00;3.83;;;6.40;99.90;;;;;;5080945;28;20362;-90
2022/04/26 14:10:06;;;;;;;7.17;2.47;;;6.50;99.90;;;;;;5080877;28;20230;-90
2022/04/26 14:12:38;;;;;;;12.60;3.03;;;6.60;99.90;;;;;;5080122;28;20287;-89
2022/04/26 14:23:42;;;;;;;12.07;2.63;;;7.10;99.90;;;;;;5061995;28;20611;-91
2022/04/26 14:26:14;;;;;;;11.07;3.03;;;7.10;99.90;;;;;;5061433;28;20254;-90
2022/04/26 14:28:46;;;;;;;13.43;2.60;;;7.20;99.90;;;;;;5060953;28;20231;-91
2022/04/26 14:31:21;;;;;;;7.03;2.60;;;7.20;99.90;;;;;;5060038;28;20262;-90
2022/04/26 14:33:52;;;;;;;8.20;2.67;;;7.40;99.90;;;;;;5074871;28;20209;-91
2022/04/26 14:36:25;;;;;;;4.57;2.27;;;7.40;99.90;;;;;;5097767;28;20207;-89
2022/04/26 14:39:19;;;;;;;8.37;2.70;;;7.40;99.90;;;;;;5099314;28;20192;-90
2022/04/26 14:41:56;;;;;;;6.27;2.23;;;7.60;99.90;;;;;;5098555;28;20229;-89
2022/04/26 14:44:30;;;;;;;9.17;3.20;;;7.60;99.90;;;;;;5098467;28;20196;-90
2022/04/26 14:47:09;;;;;;;12.03;2.50;;;7.70;99.90;;;;;;5093950;28;20649;-91
2022/04/26 14:49:42;;;;;;;4.53;1.73;;;7.80;99.90;;;;;;5090088;28;20270;-90
2022/04/26 14:52:21;;;;;;;6.40;2.00;;;7.90;99.90;;;;;;5092013;28;20213;-91
2022/04/26 14:55:08;;;;;;;4.60;1.97;;;7.80;99.90;;;;;;5094035;28;20206;-90
2022/04/26 14:57:41;;;;;;;6.73;2.10;;;7.90;99.90;;;;;;5096720;28;20202;-91
2022/04/26 15:00:14;;;;;;;10.87;2.40;;;7.90;99.90;;;;;;5096479;28;20219;-90
2022/04/26 15:05:31;;;;;;;4.67;1.90;;;7.70;99.90;;;;;;5095251;28;20204;-90
2022/04/26 15:10:57;;;;;;;7.93;2.27;;;7.70;99.90;;;;;;5075626;28;20235;-89
2022/04/26 15:21:49;;;;;;;4.97;1.97;;;7.80;99.90;;;;;;5072684;28;20184;-90
2022/04/26 15:24:21;;;;;;;7.27;2.00;;;7.90;99.90;;;;;;5079310;28;20202;-90
2022/04/26 15:26:54;;;;;;;5.70;2.27;;;8.00;99.90;;;;;;5078691;28;20215;-90
2022/04/26 15:29:26;;;;;;;5.83;2.20;;;8.00;99.90;;;;;;5076676;28;20208;-90
2022/04/26 15:31:57;;;;;;;7.33;1.90;;;8.10;99.90;;;;;;5074854;28;20192;-90
2022/04/26 15:37:26;;;;;;;10.37;2.47;;;8.10;99.90;;;;;;5067638;28;20200;-91
2022/04/26 15:39:58;;;;;;;6.80;2.20;;;8.00;99.90;;;;;;5069678;28;20245;-89
2022/04/26 15:42:34;;;;;;;7.70;1.93;;;8.20;99.90;;;;;;5071115;28;20228;-91
2022/04/26 15:45:06;;;;;;;6.43;1.97;;;8.20;99.90;;;;;;5063895;28;20211;-90
2022/04/26 15:47:38;;;;;;;9.23;2.40;;;8.30;99.90;;;;;;5064108;28;20904;-91
2022/04/26 15:50:09;;;;;;;5.87;2.10;;;8.10;99.90;;;;;;5061278;28;20250;-90
2022/04/26 15:52:40;;;;;;;6.63;2.60;;;8.20;99.90;;;;;;5061953;28;20208;-89
2022/04/26 15:55:11;;;;;;;4.33;1.63;;;8.20;99.90;;;;;;5058624;28;20730;-90
2022/04/26 15:57:59;;;;;;;4.70;1.87;;;8.20;99.90;;;;;;5065081;28;20211;-89
2022/04/26 16:00:35;;;;;;;6.33;2.23;;;8.20;99.90;;;;;;5071864;28;20235;-91
2022/04/26 16:03:08;;;;;;;5.50;1.87;;;8.20;99.90;;;;;;5066208;28;20273;-90
2022/04/26 16:05:41;;;;;;;5.07;2.10;;;8.20;99.90;;;;;;5065275;28;20204;-90
2022/04/26 16:08:21;;;;;;;5.23;2.50;;;8.20;99.90;;;;;;5072665;28;20234;-90
2022/04/26 16:22:22;;;;;;;7.97;2.47;;;8.70;99.90;;;;;;5057614;28;20245;-91
2022/04/26 16:24:53;;;;;;;6.53;2.30;;;8.90;99.90;;;;;;5039018;28;20640;-89
2022/04/26 16:27:24;;;;;;;5.80;2.00;;;9.00;99.90;;;;;;5037579;28;20262;-89
2022/04/26 16:29:58;;;;;;;7.30;1.93;;;9.00;99.90;;;;;;5038406;28;20236;-90
2022/04/26 16:32:31;;;;;;;7.97;2.07;;;8.80;99.90;;;;;;5038978;28;20246;-89
2022/04/26 16:35:02;;;;;;;5.93;2.10;;;8.80;99.90;;;;;;5039199;28;20232;-91
2022/04/26 16:37:33;;;;;;;7.77;2.80;;;9.00;99.90;;;;;;5038194;28;20275;-90
2022/04/26 16:40:05;;;;;;;8.30;2.40;;;9.10;99.90;;;;;;5038212;28;20674;-90
2022/04/26 16:42:37;;;;;;;7.03;2.13;;;9.00;99.90;;;;;;5038742;28;20232;-90
2022/04/26 16:45:13;;;;;;;7.83;2.40;;;9.00;99.90;;;;;;5039096;28;20319;-91
2022/04/26 16:47:45;;;;;;;6.00;2.20;;;8.90;99.90;;;;;;5039892;28;20239;-90
2022/04/26 16:50:16;;;;;;;5.93;1.80;;;8.90;99.90;;;;;;5051873;28;20235;-91
2022/04/26 16:52:49;;;;;;;8.80;2.43;;;9.10;99.90;;;;;;5052255;28;20255;-90
2022/04/26 16:55:21;;;;;;;5.73;1.97;;;9.30;99.90;;;;;;5058210;28;20231;-89
2022/04/26 16:57:53;;;;;;;6.50;2.57;;;9.40;99.90;;;;;;5058644;28;20200;-90
2022/04/26 17:00:29;;;;;;;8.87;2.60;;;9.60;99.90;;;;;;5058811;28;20299;-90
2022/04/26 17:03:00;;;;;;;6.17;1.53;;;9.50;99.90;;;;;;5059322;28;20204;-90
2022/04/26 17:05:32;;;;;;;5.00;1.77;;;9.50;99.90;;;;;;5058753;28;20219;-90
2022/04/26 17:08:05;;;;;;;4.07;1.30;;;9.60;99.90;;;;;;5058146;28;20285;-91
2022/04/26 17:10:36;;;;;;;4.37;1.20;;;9.70;99.90;;;;;;5059493;28;20315;-89
2022/04/26 17:13:07;;;;;;;5.80;1.50;;;9.90;99.90;;;;;;5060016;28;20275;-90
2022/04/26 17:15:42;;;;;;;4.60;1.17;;;10.00;99.90;;;;;;5060749;28;20298;-90
2022/04/26 17:18:15;;;;;;;5.00;1.23;;;10.30;99.90;;;;;;5067531;28;20202;-89
2022/04/26 17:20:47;;;;;;;2.73;1.00;;;10.40;99.90;;;;;;5073965;28;20227;-90
2022/04/26 17:23:20;;;;;;;3.00;1.17;;;10.30;99.90;;;;;;5552342;22;20263;-89
2022/04/26 17:25:52;;;;;;;5.33;1.40;;;10.30;99.90;;;;;;5073597;28;20642;-90
2022/04/26 17:28:26;;;;;;;4.27;1.07;;;10.50;99.90;;;;;;5052734;28;20205;-90
2022/04/26 17:31:01;;;;;;;4.93;1.20;;;10.80;99.90;;;;;;5052475;28;20232;-91
2022/04/26 17:33:44;;;;;;;3.70;1.13;;;11.00;99.90;;;;;;5049375;28;20242;-91
2022/04/26 17:36:16;;;;;;;3.93;1.03;;;10.90;99.90;;;;;;5046580;28;20635;-90
2022/04/26 17:38:47;;;;;;;4.63;1.10;;;10.90;99.90;;;;;;5044241;28;20220;-91
2022/04/26 17:41:19;;;;;;;4.80;1.03;;;10.80;99.90;;;;;;5043905;28;20235;-91
2022/04/26 17:43:52;;;;;;;7.80;1.40;;;10.50;99.90;;;;;;5042250;28;20251;-92
2022/04/26 17:46:25;;;;;;;4.73;1.50;;;10.60;99.90;;;;;;5040073;28;20242;-91
2022/04/26 17:48:58;;;;;;;3.57;1.10;;;10.70;99.90;;;;;;5040705;28;20247;-91
2022/04/26 17:51:29;;;;;;;4.07;1.17;;;10.80;99.90;;;;;;5037883;28;20294;-91
2022/04/26 17:56:50;;;;;;;5.40;1.73;;;10.40;99.90;;;;;;5042427;28;20216;-90
2022/04/26 17:59:22;;;;;;;8.33;1.50;;;10.70;99.90;;;;;;5037918;28;20220;-91
2022/04/26 18:01:57;;;;;;;5.90;1.30;;;10.60;99.90;;;;;;5039160;28;20296;-90
2022/04/26 18:04:30;;;;;;;4.53;1.30;;;10.40;99.90;;;;;;5060989;28;20207;-91
2022/04/26 18:07:02;;;;;;;5.03;2.13;;;10.20;99.90;;;;;;5040946;28;20228;-90
2022/04/26 18:09:36;;;;;;;6.33;1.40;;;10.30;99.90;;;;;;5036132;28;20205;-91
2022/04/26 18:12:11;;;;;;;5.60;1.63;;;10.50;99.90;;;;;;5036215;28;20260;-89
2022/04/26 18:14:42;;;;;;;4.87;1.40;;;10.50;99.90;;;;;;5037804;28;20259;-90
2022/04/26 18:17:17;;;;;;;4.70;1.17;;;10.40;99.90;;;;;;5036823;28;20228;-93
2022/04/26 18:19:49;;;;;;;5.57;1.07;;;10.50;99.90;;;;;;5041212;28;20581;-91
2022/04/26 18:25:05;;;;;;;5.70;1.30;;;10.90;99.90;;;;;;5356298;23;20269;-91
2022/04/26 18:27:36;;;;;;;5.60;1.13;;;11.20;99.90;;;;;;5054595;28;20230;-90
2022/04/26 18:30:10;;;;;;;4.30;1.17;;;11.40;99.90;;;;;;5060809;28;20727;-90